createdAt,value
2023-05-16T00:00:06.385Z,41.56
2023-05-16T00:01:08.312Z,41.55
2023-05-16T00:02:10.036Z,41.49
2023-05-16T00:03:12.027Z,41.52
2023-05-16T00:04:14.233Z,41.71
2023-05-16T00:05:16.088Z,41.87
2023-05-16T00:06:17.898Z,42.01
2023-05-16T00:07:19.758Z,42.08
2023-05-16T00:08:21.561Z,42.21
2023-05-16T00:09:23.380Z,42.24
2023-05-16T00:10:25.340Z,42.27
2023-05-16T00:11:27.412Z,42.28
2023-05-16T00:12:29.113Z,42.29
2023-05-16T00:13:30.819Z,42.35
2023-05-16T00:14:32.516Z,42.47
2023-05-16T00:15:34.214Z,42.48
2023-05-16T00:16:36.046Z,42.45
2023-05-16T00:17:37.840Z,42.41
2023-05-16T00:18:39.674Z,42.47
2023-05-16T00:19:41.425Z,42.50
2023-05-16T00:20:43.234Z,42.46
2023-05-16T00:21:44.961Z,42.47
2023-05-16T00:22:46.646Z,42.43
2023-05-16T00:23:48.331Z,42.38
2023-05-16T00:24:50.034Z,42.44
2023-05-16T00:25:51.710Z,42.41
2023-05-16T00:26:53.658Z,42.39
2023-05-16T00:27:55.376Z,42.39
2023-05-16T00:28:57.053Z,42.36
2023-05-16T00:29:58.747Z,42.32
2023-05-16T00:31:00.528Z,42.45
2023-05-16T00:32:02.311Z,42.62
2023-05-16T00:33:04.125Z,42.69
2023-05-16T00:34:06.084Z,42.71
2023-05-16T00:35:07.839Z,42.66
2023-05-16T00:36:09.843Z,42.67
2023-05-16T00:37:11.672Z,42.70
2023-05-16T00:38:13.471Z,42.69
2023-05-16T00:39:15.251Z,42.66
2023-05-16T00:40:17.061Z,42.65
2023-05-16T00:41:18.763Z,42.63
2023-05-16T00:42:20.610Z,42.72
2023-05-16T00:43:22.310Z,42.83
2023-05-16T00:44:24.092Z,42.84
2023-05-16T00:45:25.894Z,42.87
2023-05-16T00:46:27.864Z,42.90
2023-05-16T00:47:29.747Z,42.93
2023-05-16T00:48:31.512Z,42.98
2023-05-16T00:49:33.202Z,42.87
2023-05-16T00:50:34.994Z,42.75
2023-05-16T00:51:36.781Z,42.68
2023-05-16T00:52:38.520Z,42.59
2023-05-16T00:53:40.380Z,42.62
2023-05-16T00:54:42.008Z,42.68
2023-05-16T00:55:43.807Z,42.71
2023-05-16T00:56:45.606Z,42.82
2023-05-16T00:57:47.440Z,42.93
2023-05-16T00:58:49.229Z,42.97
2023-05-16T00:59:51.012Z,43.01
2023-05-16T01:00:52.809Z,43.02
2023-05-16T01:01:54.570Z,43.17
2023-05-16T01:02:56.428Z,43.26
2023-05-16T01:03:58.429Z,43.24
2023-05-16T01:05:00.344Z,43.24
2023-05-16T01:06:02.150Z,43.24
2023-05-16T01:07:03.937Z,43.17
2023-05-16T01:08:05.665Z,43.18
2023-05-16T01:09:07.462Z,43.24
2023-05-16T01:10:09.958Z,43.20
2023-05-16T01:11:11.644Z,43.14
2023-05-16T01:12:13.337Z,43.15
2023-05-16T01:13:15.066Z,43.23
2023-05-16T01:14:16.758Z,43.21
2023-05-16T01:15:18.450Z,43.12
2023-05-16T01:16:20.318Z,43.12
2023-05-16T01:17:22.147Z,43.24
2023-05-16T01:18:23.871Z,43.41
2023-05-16T01:19:25.695Z,43.54
2023-05-16T01:20:27.658Z,43.52
2023-05-16T01:21:29.445Z,43.54
2023-05-16T01:22:31.242Z,43.59
2023-05-16T01:23:32.955Z,43.68
2023-05-16T01:24:34.645Z,43.68
2023-05-16T01:25:36.333Z,43.57
2023-05-16T01:26:38.135Z,43.52
2023-05-16T01:27:39.847Z,43.54
2023-05-16T01:28:41.676Z,43.71
2023-05-16T01:29:43.470Z,43.89
2023-05-16T01:30:45.469Z,43.92
2023-05-16T01:31:47.316Z,43.87
2023-05-16T01:32:49.255Z,43.73
2023-05-16T01:33:51.021Z,43.62
2023-05-16T01:34:52.693Z,43.62
2023-05-16T01:35:54.389Z,43.67
2023-05-16T01:36:56.282Z,43.75
2023-05-16T01:37:57.966Z,43.82
2023-05-16T01:38:59.783Z,43.86
2023-05-16T01:40:01.578Z,43.77
2023-05-16T01:41:03.283Z,43.72
2023-05-16T01:42:04.967Z,43.67
2023-05-16T01:43:06.774Z,43.54
2023-05-16T01:44:08.558Z,43.39
2023-05-16T01:45:10.310Z,43.29
2023-05-16T01:46:12.341Z,43.29
2023-05-16T01:47:14.275Z,43.38
2023-05-16T01:48:16.135Z,43.50
2023-05-16T01:49:17.931Z,43.59
2023-05-16T01:50:19.832Z,43.64
2023-05-16T01:51:21.547Z,43.69
2023-05-16T01:52:23.331Z,43.80
2023-05-16T01:53:25.022Z,43.85
2023-05-16T01:54:26.860Z,43.95
2023-05-16T01:55:28.665Z,44.01
2023-05-16T01:56:30.625Z,44.06
2023-05-16T01:57:32.309Z,44.02
2023-05-16T01:58:34.010Z,44.00
2023-05-16T01:59:35.837Z,43.96
2023-05-16T02:00:37.698Z,43.97
2023-05-16T02:01:39.707Z,43.97
2023-05-16T02:02:41.589Z,43.97
2023-05-16T02:03:43.456Z,43.89
2023-05-16T02:04:45.266Z,43.87
2023-05-16T02:05:46.949Z,43.87
2023-05-16T02:06:48.746Z,43.86
2023-05-16T02:07:50.432Z,43.89
2023-05-16T02:08:52.125Z,43.99
2023-05-16T02:09:53.872Z,44.11
2023-05-16T02:10:55.878Z,44.15
2023-05-16T02:11:57.677Z,44.19
2023-05-16T02:12:59.545Z,44.24
2023-05-16T02:14:01.304Z,44.35
2023-05-16T02:15:03.052Z,44.37
2023-05-16T02:16:04.960Z,44.31
2023-05-16T02:17:06.763Z,44.25
2023-05-16T02:18:08.731Z,44.17
2023-05-16T02:19:10.570Z,44.19
2023-05-16T02:20:13.014Z,44.28
2023-05-16T02:21:14.665Z,44.35
2023-05-16T02:22:16.367Z,44.42
2023-05-16T02:23:18.060Z,44.45
2023-05-16T02:24:19.895Z,44.41
2023-05-16T02:25:21.701Z,44.35
2023-05-16T02:26:23.500Z,44.44
2023-05-16T02:27:25.303Z,44.49
2023-05-16T02:28:27.007Z,44.41
2023-05-16T02:29:28.711Z,44.37
2023-05-16T02:30:30.655Z,44.36
2023-05-16T02:31:32.731Z,44.33
2023-05-16T02:32:34.684Z,44.29
2023-05-16T02:33:36.351Z,44.25
2023-05-16T02:34:38.151Z,44.23
2023-05-16T02:35:39.885Z,44.23
2023-05-16T02:36:41.792Z,44.37
2023-05-16T02:37:43.558Z,44.50
2023-05-16T02:38:45.209Z,44.57
2023-05-16T02:39:47.046Z,44.63
2023-05-16T02:40:48.889Z,44.69
2023-05-16T02:41:50.591Z,44.68
2023-05-16T02:42:52.391Z,44.68
2023-05-16T02:43:54.096Z,44.69
2023-05-16T02:44:55.898Z,44.69
2023-05-16T02:45:57.682Z,44.72
2023-05-16T02:46:59.642Z,44.80
2023-05-16T02:48:01.514Z,44.91
2023-05-16T02:49:03.344Z,44.92
2023-05-16T02:50:05.350Z,44.93
2023-05-16T02:51:07.201Z,44.97
2023-05-16T02:52:09.016Z,45.00
2023-05-16T02:53:10.741Z,45.03
2023-05-16T02:54:12.544Z,45.09
2023-05-16T02:55:21.686Z,45.15
2023-05-16T02:56:17.994Z,45.23
2023-05-16T02:57:19.672Z,45.34
2023-05-16T02:58:21.476Z,45.34
2023-05-16T02:59:23.167Z,45.28
2023-05-16T03:00:24.973Z,45.33
2023-05-16T03:01:27.559Z,45.37
2023-05-16T03:02:29.322Z,45.36
2023-05-16T03:03:31.293Z,45.33
2023-05-16T03:04:33.039Z,45.29
2023-05-16T03:05:34.853Z,45.21
2023-05-16T03:06:36.794Z,44.93
2023-05-16T03:07:38.608Z,44.37
2023-05-16T03:08:40.398Z,43.67
2023-05-16T03:09:42.092Z,43.31
2023-05-16T03:10:43.903Z,43.04
2023-05-16T03:11:45.761Z,43.04
2023-05-16T03:12:47.454Z,42.83
2023-05-16T03:13:49.249Z,42.57
2023-05-16T03:14:50.954Z,42.78
2023-05-16T03:15:52.680Z,42.79
2023-05-16T03:16:54.583Z,43.23
2023-05-16T03:17:56.321Z,43.62
2023-05-16T03:18:58.151Z,43.92
2023-05-16T03:19:59.886Z,44.16
2023-05-16T03:21:01.559Z,44.35
2023-05-16T03:22:03.291Z,44.60
2023-05-16T03:23:04.980Z,44.92
2023-05-16T03:24:06.828Z,45.10
2023-05-16T03:25:08.805Z,45.13
2023-05-16T03:26:10.709Z,44.68
2023-05-16T03:27:12.435Z,44.05
2023-05-16T03:28:15.458Z,43.60
2023-05-16T03:29:17.385Z,43.23
2023-05-16T03:30:19.188Z,42.98
2023-05-16T03:31:21.016Z,42.72
2023-05-16T03:32:23.089Z,42.20
2023-05-16T03:33:24.838Z,42.15
2023-05-16T03:34:26.630Z,42.05
2023-05-16T03:35:28.783Z,41.96
2023-05-16T03:36:30.957Z,41.89
2023-05-16T03:37:32.816Z,41.86
2023-05-16T03:38:34.526Z,41.89
2023-05-16T03:39:36.212Z,41.78
2023-05-16T03:40:38.038Z,41.71
2023-05-16T03:41:39.724Z,41.64
2023-05-16T03:42:41.554Z,41.63
2023-05-16T03:43:43.264Z,41.55
2023-05-16T03:44:44.970Z,41.48
2023-05-16T03:45:46.830Z,41.37
2023-05-16T03:46:48.676Z,41.35
2023-05-16T03:47:50.527Z,41.31
2023-05-16T03:48:52.230Z,41.08
2023-05-16T03:49:53.940Z,41.11
2023-05-16T03:50:55.747Z,41.13
2023-05-16T03:51:57.542Z,41.11
2023-05-16T03:52:59.262Z,41.11
2023-05-16T03:54:01.053Z,41.20
2023-05-16T03:55:02.751Z,41.13
2023-05-16T03:56:04.658Z,41.17
2023-05-16T03:57:06.370Z,41.14
2023-05-16T03:58:08.202Z,41.20
2023-05-16T03:59:09.981Z,41.27
2023-05-16T04:00:11.882Z,41.31
2023-05-16T04:01:13.713Z,41.24
2023-05-16T04:02:18.107Z,40.97
2023-05-16T04:03:21.839Z,40.77
2023-05-16T04:04:24.012Z,40.68
2023-05-16T04:05:26.086Z,40.77
2023-05-16T04:06:28.220Z,40.79
2023-05-16T04:07:29.914Z,40.85
2023-05-16T04:08:31.762Z,40.77
2023-05-16T04:09:33.462Z,40.51
2023-05-16T04:10:35.368Z,40.38
2023-05-16T04:11:37.077Z,40.14
2023-05-16T04:12:38.940Z,40.21
2023-05-16T04:13:40.713Z,40.17
2023-05-16T04:14:42.523Z,39.88
2023-05-16T04:15:44.211Z,39.84
2023-05-16T04:16:46.085Z,39.93
2023-05-16T04:17:47.869Z,40.02
2023-05-16T04:18:49.787Z,39.94
2023-05-16T04:19:51.465Z,40.00
2023-05-16T04:20:53.366Z,39.63
2023-05-16T04:21:55.069Z,39.42
2023-05-16T04:22:56.882Z,39.29
2023-05-16T04:23:58.618Z,39.17
2023-05-16T04:25:00.307Z,39.03
2023-05-16T04:26:02.104Z,39.02
2023-05-16T04:27:03.910Z,38.97
2023-05-16T04:28:05.608Z,39.04
2023-05-16T04:29:07.362Z,38.83
2023-05-16T04:30:09.470Z,38.82
2023-05-16T04:31:11.331Z,38.86
2023-05-16T04:32:13.070Z,38.76
2023-05-16T04:33:14.950Z,38.59
2023-05-16T04:34:16.805Z,38.70
2023-05-16T04:35:18.610Z,38.86
2023-05-16T04:36:20.420Z,38.99
2023-05-16T04:37:22.231Z,38.84
2023-05-16T04:38:23.918Z,38.74
2023-05-16T04:39:25.732Z,38.80
2023-05-16T04:40:27.747Z,39.22
2023-05-16T04:41:29.615Z,39.30
2023-05-16T04:42:31.399Z,39.44
2023-05-16T04:43:33.096Z,39.31
2023-05-16T04:44:34.928Z,39.10
2023-05-16T04:45:37.659Z,38.78
2023-05-16T04:46:39.881Z,38.60
2023-05-16T04:47:41.716Z,38.57
2023-05-16T04:48:43.514Z,38.96
2023-05-16T04:49:45.243Z,39.03
2023-05-16T04:50:47.152Z,39.45
2023-05-16T04:51:48.851Z,39.10
2023-05-16T04:52:50.618Z,39.46
2023-05-16T04:53:52.413Z,39.82
2023-05-16T04:54:54.118Z,39.95
2023-05-16T04:55:55.976Z,39.80
2023-05-16T04:56:58.023Z,39.98
2023-05-16T04:57:59.836Z,39.44
2023-05-16T04:59:01.627Z,38.84
2023-05-16T05:00:03.571Z,38.99
2023-05-16T05:01:05.359Z,39.24
2023-05-16T05:02:07.322Z,39.42
2023-05-16T05:03:09.195Z,39.64
2023-05-16T05:04:11.048Z,39.85
2023-05-16T05:05:12.832Z,40.01
2023-05-16T05:06:14.892Z,40.00
2023-05-16T05:07:16.696Z,39.98
2023-05-16T05:08:18.387Z,40.00
2023-05-16T05:09:20.181Z,39.65
2023-05-16T05:10:22.023Z,39.75
2023-05-16T05:11:23.813Z,39.71
2023-05-16T05:12:25.511Z,39.65
2023-05-16T05:13:27.358Z,39.46
2023-05-16T05:14:29.243Z,39.28
2023-05-16T05:15:31.065Z,39.18
2023-05-16T05:16:32.937Z,39.17
2023-05-16T05:17:34.835Z,39.00
2023-05-16T05:18:36.883Z,38.66
2023-05-16T05:19:38.756Z,37.94
2023-05-16T05:20:40.664Z,37.66
2023-05-16T05:21:42.388Z,37.45
2023-05-16T05:22:44.159Z,36.98
2023-05-16T05:23:45.849Z,37.04
2023-05-16T05:24:47.649Z,37.06
2023-05-16T05:25:49.408Z,37.10
2023-05-16T05:26:51.205Z,36.69
2023-05-16T05:27:53.010Z,37.01
2023-05-16T05:29:04.526Z,37.02
2023-05-16T05:29:58.302Z,37.02
2023-05-16T05:31:00.144Z,37.31
2023-05-16T05:32:01.887Z,36.67
2023-05-16T05:33:03.797Z,36.40
2023-05-16T05:34:05.647Z,36.17
2023-05-16T05:35:07.432Z,35.70
2023-05-16T05:36:10.370Z,35.61
2023-05-16T05:37:12.073Z,35.76
2023-05-16T05:38:13.864Z,35.53
2023-05-16T05:39:15.661Z,35.66
2023-05-16T05:40:17.662Z,35.56
2023-05-16T05:41:19.407Z,35.04
2023-05-16T05:42:21.101Z,34.22
2023-05-16T05:43:22.898Z,34.21
2023-05-16T05:44:24.698Z,33.90
2023-05-16T05:45:26.659Z,33.54
2023-05-16T05:46:28.916Z,33.77
2023-05-16T05:47:30.863Z,33.93
2023-05-16T05:48:32.638Z,33.46
2023-05-16T05:49:34.323Z,33.43
2023-05-16T05:50:36.213Z,33.21
2023-05-16T05:51:37.935Z,32.87
2023-05-16T05:52:39.634Z,32.86
2023-05-16T05:53:41.447Z,32.77
2023-05-16T05:54:43.227Z,32.71
2023-05-16T05:55:44.911Z,32.82
2023-05-16T05:56:46.834Z,32.65
2023-05-16T05:57:48.623Z,32.49
2023-05-16T05:58:50.433Z,32.47
2023-05-16T05:59:52.145Z,32.58
2023-05-16T06:00:53.917Z,32.81
2023-05-16T06:01:55.644Z,32.74
2023-05-16T06:02:57.425Z,32.42
2023-05-16T06:04:00.774Z,32.40
2023-05-16T06:05:02.832Z,32.51
2023-05-16T06:06:04.864Z,32.51
2023-05-16T06:07:06.850Z,32.65
2023-05-16T06:08:08.535Z,32.32
2023-05-16T06:09:10.239Z,32.12
2023-05-16T06:10:13.232Z,32.18
2023-05-16T06:11:15.019Z,32.23
2023-05-16T06:12:16.844Z,32.53
2023-05-16T06:13:18.624Z,32.34
2023-05-16T06:14:20.433Z,32.29
2023-05-16T06:15:22.480Z,32.11
2023-05-16T06:16:24.333Z,32.07
2023-05-16T06:17:26.138Z,32.16
2023-05-16T06:18:27.901Z,32.02
2023-05-16T06:19:29.588Z,32.04
2023-05-16T06:20:31.400Z,32.06
2023-05-16T06:21:33.194Z,32.57
2023-05-16T06:22:34.932Z,32.54
2023-05-16T06:23:36.625Z,32.24
2023-05-16T06:24:38.333Z,32.16
2023-05-16T06:25:40.142Z,32.10
2023-05-16T06:26:41.924Z,32.13
2023-05-16T06:27:43.744Z,31.66
2023-05-16T06:28:45.438Z,31.63
2023-05-16T06:29:47.135Z,31.88
2023-05-16T06:30:49.032Z,32.23
2023-05-16T06:31:50.925Z,31.95
2023-05-16T06:32:52.920Z,32.01
2023-05-16T06:33:54.865Z,32.02
2023-05-16T06:35:58.516Z,32.44
2023-05-16T06:37:00.412Z,32.48
2023-05-16T06:38:02.248Z,32.26
2023-05-16T06:39:04.038Z,32.17
2023-05-16T06:40:05.835Z,32.27
2023-05-16T06:41:07.635Z,32.36
2023-05-16T06:42:09.562Z,32.39
2023-05-16T06:43:11.516Z,32.47
2023-05-16T06:44:13.264Z,32.47
2023-05-16T06:45:15.116Z,32.43
2023-05-16T06:46:17.297Z,32.61
2023-05-16T06:47:19.217Z,32.69
2023-05-16T06:48:21.149Z,32.50
2023-05-16T06:49:23.023Z,32.40
2023-05-16T06:50:24.873Z,32.20
2023-05-16T06:51:26.831Z,32.35
2023-05-16T06:52:28.685Z,32.71
2023-05-16T06:53:30.640Z,33.17
2023-05-16T06:54:32.597Z,33.20
2023-05-16T06:55:34.772Z,32.77
2023-05-16T06:56:36.793Z,32.66
2023-05-16T06:57:38.699Z,33.15
2023-05-16T06:58:40.464Z,33.48
2023-05-16T06:59:42.346Z,33.57
2023-05-16T07:00:44.198Z,33.25
2023-05-16T07:01:46.278Z,33.23
2023-05-16T07:02:48.485Z,32.93
2023-05-16T07:03:50.495Z,32.98
2023-05-16T07:04:52.417Z,33.08
2023-05-16T07:05:54.368Z,32.93
2023-05-16T07:06:56.334Z,32.72
2023-05-16T07:07:58.291Z,32.89
2023-05-16T07:09:00.555Z,32.82
2023-05-16T07:10:02.393Z,32.60
2023-05-16T07:11:04.343Z,32.33
2023-05-16T07:12:06.702Z,32.28
2023-05-16T07:13:08.613Z,32.38
2023-05-16T07:14:10.624Z,32.31
2023-05-16T07:15:12.567Z,32.17
2023-05-16T07:16:14.871Z,32.25
2023-05-16T07:17:16.768Z,32.29
2023-05-16T07:18:19.982Z,32.40
2023-05-16T07:19:21.832Z,32.02
2023-05-16T07:20:23.863Z,31.83
2023-05-16T07:21:25.727Z,31.82
2023-05-16T07:22:28.081Z,31.80
2023-05-16T07:23:29.918Z,32.01
2023-05-16T07:24:31.869Z,31.78
2023-05-16T07:25:33.670Z,31.78
2023-05-16T07:26:35.670Z,32.00
2023-05-16T07:27:37.671Z,31.93
2023-05-16T07:28:39.798Z,31.69
2023-05-16T07:29:41.837Z,32.31
2023-05-16T07:30:43.806Z,32.65
2023-05-16T07:31:45.658Z,32.24
2023-05-16T07:32:47.746Z,32.30
2023-05-16T07:33:49.754Z,31.93
2023-05-16T07:34:51.698Z,31.65
2023-05-16T07:36:00.886Z,31.67
2023-05-16T07:36:57.753Z,31.89
2023-05-16T07:37:59.618Z,31.54
2023-05-16T07:39:01.452Z,31.05
2023-05-16T07:40:03.511Z,30.80
2023-05-16T07:41:05.461Z,30.86
2023-05-16T07:42:07.416Z,30.71
2023-05-16T07:43:09.669Z,30.64
2023-05-16T07:44:11.623Z,30.66
2023-05-16T07:45:13.689Z,31.02
2023-05-16T07:46:15.872Z,31.03
2023-05-16T07:47:17.795Z,31.24
2023-05-16T07:48:19.839Z,31.09
2023-05-16T07:49:21.796Z,31.16
2023-05-16T07:50:23.889Z,31.20
2023-05-16T07:51:25.810Z,31.03
2023-05-16T07:52:28.060Z,30.86
2023-05-16T07:53:31.736Z,30.56
2023-05-16T07:54:33.712Z,30.64
2023-05-16T07:55:35.658Z,30.92
2023-05-16T07:56:37.612Z,31.02
2023-05-16T07:57:39.570Z,30.82
2023-05-16T07:58:41.531Z,30.87
2023-05-16T07:59:43.513Z,30.38
2023-05-16T08:00:45.518Z,30.24
2023-05-16T08:01:47.485Z,30.21
2023-05-16T08:02:49.490Z,30.67
2023-05-16T08:03:51.468Z,30.64
2023-05-16T08:04:53.455Z,30.64
2023-05-16T08:05:55.549Z,30.61
2023-05-16T08:06:57.749Z,30.91
2023-05-16T08:07:59.603Z,30.61
2023-05-16T08:09:01.478Z,30.71
2023-05-16T08:10:03.402Z,30.42
2023-05-16T08:11:05.357Z,29.85
2023-05-16T08:12:07.205Z,29.83
2023-05-16T08:13:09.060Z,29.49
2023-05-16T08:14:11.038Z,29.41
2023-05-16T08:15:12.967Z,29.50
2023-05-16T08:16:15.488Z,29.59
2023-05-16T08:17:17.379Z,29.63
2023-05-16T08:18:22.087Z,29.83
2023-05-16T08:19:23.154Z,30.01
2023-05-16T08:20:27.940Z,29.79
2023-05-16T08:21:29.902Z,30.03
2023-05-16T08:22:32.678Z,29.97
2023-05-16T08:23:34.543Z,29.73
2023-05-16T08:24:36.384Z,29.28
2023-05-16T08:25:38.324Z,29.20
2023-05-16T08:26:40.276Z,29.00
2023-05-16T08:27:42.127Z,28.86
2023-05-16T08:28:44.083Z,29.17
2023-05-16T08:29:46.036Z,29.50
2023-05-16T08:30:48.254Z,29.68
2023-05-16T08:31:50.260Z,29.73
2023-05-16T08:32:52.216Z,29.63
2023-05-16T08:33:54.150Z,29.30
2023-05-16T08:34:55.906Z,29.30
2023-05-16T08:35:58.969Z,29.40
2023-05-16T08:37:00.922Z,29.68
2023-05-16T08:38:02.875Z,29.91
2023-05-16T08:39:04.872Z,30.20
2023-05-16T08:40:07.086Z,30.00
2023-05-16T08:41:09.036Z,30.29
2023-05-16T08:42:10.990Z,29.84
2023-05-16T08:43:12.960Z,29.42
2023-05-16T08:44:15.305Z,28.90
2023-05-16T08:45:17.183Z,28.65
2023-05-16T08:46:19.332Z,29.06
2023-05-16T08:47:21.471Z,29.39
2023-05-16T08:48:23.354Z,29.45
2023-05-16T08:49:25.375Z,29.58
2023-05-16T08:50:27.332Z,29.86
2023-05-16T08:51:29.300Z,30.02
2023-05-16T08:52:31.255Z,29.92
2023-05-16T08:53:33.404Z,29.53
2023-05-16T08:54:35.251Z,29.09
2023-05-16T08:55:37.199Z,29.06
2023-05-16T08:56:39.148Z,29.27
2023-05-16T08:57:40.998Z,29.68
2023-05-16T08:58:42.959Z,29.97
2023-05-16T08:59:44.801Z,29.56
2023-05-16T09:00:46.792Z,29.22
2023-05-16T09:01:48.759Z,29.79
2023-05-16T09:02:50.724Z,29.72
2023-05-16T09:03:52.752Z,29.28
2023-05-16T09:04:54.761Z,28.99
2023-05-16T09:05:56.616Z,28.73
2023-05-16T09:06:58.548Z,28.64
2023-05-16T09:08:00.454Z,28.93
2023-05-16T09:09:02.263Z,29.07
2023-05-16T09:10:04.233Z,28.52
2023-05-16T09:11:06.170Z,27.78
2023-05-16T09:12:08.022Z,28.06
2023-05-16T09:13:09.975Z,28.04
2023-05-16T09:14:11.825Z,28.41
2023-05-16T09:15:13.602Z,28.58
2023-05-16T09:16:15.766Z,27.97
2023-05-16T09:17:20.608Z,27.97
2023-05-16T09:18:21.335Z,28.14
2023-05-16T09:19:23.275Z,28.76
2023-05-16T09:20:25.186Z,28.29
2023-05-16T09:21:27.131Z,28.23
2023-05-16T09:22:29.032Z,28.60
2023-05-16T09:23:30.939Z,28.98
2023-05-16T09:24:32.781Z,29.01
2023-05-16T09:25:34.762Z,29.22
2023-05-16T09:26:36.805Z,28.46
2023-05-16T09:27:38.641Z,28.91
2023-05-16T09:28:40.589Z,29.04
2023-05-16T09:29:42.447Z,28.37
2023-05-16T09:30:44.328Z,27.81
2023-05-16T09:31:46.202Z,27.30
2023-05-16T09:32:48.052Z,27.83
2023-05-16T09:33:49.975Z,27.84
2023-05-16T09:34:51.793Z,27.83
2023-05-16T09:35:53.660Z,27.49
2023-05-16T09:36:55.501Z,27.77
2023-05-16T09:37:57.458Z,28.21
2023-05-16T09:38:59.512Z,27.56
2023-05-16T09:40:01.559Z,27.41
2023-05-16T09:41:03.509Z,27.29
2023-05-16T09:42:05.261Z,27.70
2023-05-16T09:43:07.013Z,27.41
2023-05-16T09:44:08.877Z,27.63
2023-05-16T09:45:10.706Z,27.38
2023-05-16T09:46:12.561Z,27.56
2023-05-16T09:47:14.517Z,27.79
2023-05-16T09:48:16.390Z,28.05
2023-05-16T09:49:18.409Z,28.10
2023-05-16T09:50:20.409Z,28.53
2023-05-16T09:51:22.369Z,28.19
2023-05-16T09:52:24.168Z,28.09
2023-05-16T09:53:26.022Z,28.79
2023-05-16T09:54:27.869Z,28.29
2023-05-16T09:55:29.678Z,27.96
2023-05-16T09:56:31.565Z,27.90
2023-05-16T09:57:33.416Z,27.98
2023-05-16T09:58:35.160Z,28.49
2023-05-16T09:59:37.021Z,28.26
2023-05-16T10:00:38.877Z,28.24
2023-05-16T10:01:40.748Z,28.24
2023-05-16T10:02:42.749Z,27.81
2023-05-16T10:03:44.739Z,27.69
2023-05-16T10:04:46.891Z,27.56
2023-05-16T10:05:48.727Z,27.92
2023-05-16T10:06:50.551Z,28.17
2023-05-16T10:07:52.324Z,28.52
2023-05-16T10:08:54.178Z,28.30
2023-05-16T10:09:56.030Z,28.62
2023-05-16T10:10:58.185Z,28.76
2023-05-16T10:12:00.040Z,28.33
2023-05-16T10:13:01.778Z,28.21
2023-05-16T10:14:04.987Z,28.37
2023-05-16T10:15:07.335Z,28.06
2023-05-16T10:16:09.427Z,28.05
2023-05-16T10:17:11.330Z,28.01
2023-05-16T10:18:13.291Z,28.11
2023-05-16T10:19:15.425Z,28.21
2023-05-16T10:20:17.517Z,28.62
2023-05-16T10:21:19.456Z,28.49
2023-05-16T10:22:21.602Z,28.85
2023-05-16T10:23:23.457Z,29.04
2023-05-16T10:24:25.207Z,28.96
2023-05-16T10:25:27.470Z,28.69
2023-05-16T10:26:29.721Z,28.61
2023-05-16T10:27:31.571Z,28.85
2023-05-16T10:28:33.444Z,28.92
2023-05-16T10:29:43.249Z,29.28
2023-05-16T10:30:39.171Z,29.56
2023-05-16T10:31:40.945Z,29.52
2023-05-16T10:32:43.061Z,29.13
2023-05-16T10:33:44.924Z,29.20
2023-05-16T10:34:46.724Z,29.37
2023-05-16T10:35:48.538Z,29.51
2023-05-16T10:36:50.579Z,29.46
2023-05-16T10:37:52.354Z,28.89
2023-05-16T10:38:54.393Z,28.95
2023-05-16T10:39:56.222Z,28.83
2023-05-16T10:40:58.176Z,29.28
2023-05-16T10:42:00.028Z,29.06
2023-05-16T10:43:04.954Z,28.73
2023-05-16T10:44:06.912Z,28.74
2023-05-16T10:45:08.775Z,28.84
2023-05-16T10:46:12.311Z,29.00
2023-05-16T10:47:14.311Z,29.12
2023-05-16T10:48:16.167Z,28.96
2023-05-16T10:49:18.617Z,28.75
2023-05-16T10:50:20.593Z,28.87
2023-05-16T10:51:22.538Z,29.32
2023-05-16T10:52:24.570Z,29.26
2023-05-16T10:53:26.530Z,29.44
2023-05-16T10:54:28.372Z,29.59
2023-05-16T10:55:30.233Z,29.42
2023-05-16T10:56:32.281Z,29.65
2023-05-16T10:57:34.160Z,29.43
2023-05-16T10:58:37.104Z,29.43
2023-05-16T10:59:39.055Z,29.26
2023-05-16T11:00:40.911Z,29.54
2023-05-16T11:01:42.932Z,29.53
2023-05-16T11:02:44.761Z,29.53
2023-05-16T11:03:46.852Z,29.72
2023-05-16T11:04:48.933Z,29.87
2023-05-16T11:05:50.770Z,29.47
2023-05-16T11:06:52.803Z,28.98
2023-05-16T11:07:54.676Z,29.01
2023-05-16T11:08:56.543Z,29.02
2023-05-16T11:09:58.480Z,28.86
2023-05-16T11:11:00.340Z,28.62
2023-05-16T11:12:02.185Z,28.85
2023-05-16T11:13:07.043Z,28.63
2023-05-16T11:14:08.965Z,28.41
2023-05-16T11:15:10.699Z,28.68
2023-05-16T11:16:13.066Z,28.51
2023-05-16T11:17:15.182Z,28.45
2023-05-16T11:18:17.329Z,28.85
2023-05-16T11:19:19.427Z,28.98
2023-05-16T11:20:21.387Z,29.14
2023-05-16T11:21:23.544Z,28.75
2023-05-16T11:22:25.495Z,28.89
2023-05-16T11:23:27.458Z,28.54
2023-05-16T11:24:29.510Z,28.49
2023-05-16T11:25:31.559Z,28.63
2023-05-16T11:26:33.823Z,28.73
2023-05-16T11:27:35.871Z,28.53
2023-05-16T11:28:37.633Z,28.75
2023-05-16T11:29:39.371Z,28.53
2023-05-16T11:30:41.424Z,28.65
2023-05-16T11:31:43.384Z,28.49
2023-05-16T11:32:45.372Z,28.28
2023-05-16T11:33:47.284Z,28.33
2023-05-16T11:34:49.132Z,28.32
2023-05-16T11:35:51.253Z,28.70
2023-05-16T11:36:54.167Z,28.70
2023-05-16T11:37:56.015Z,28.80
2023-05-16T11:38:57.862Z,28.26
2023-05-16T11:39:59.837Z,28.11
2023-05-16T11:41:01.784Z,28.12
2023-05-16T11:42:03.618Z,28.09
2023-05-16T11:43:07.276Z,28.15
2023-05-16T11:44:12.031Z,28.38
2023-05-16T11:45:13.889Z,28.29
2023-05-16T11:46:17.023Z,28.61
2023-05-16T11:47:19.137Z,28.77
2023-05-16T11:48:32.608Z,28.98
2023-05-16T11:49:24.863Z,29.00
2023-05-16T11:50:26.710Z,29.31
2023-05-16T11:51:28.570Z,29.37
2023-05-16T11:52:30.423Z,29.40
2023-05-16T11:53:32.779Z,29.66
2023-05-16T11:54:34.738Z,29.79
2023-05-16T11:56:40.586Z,29.38
2023-05-16T11:57:42.845Z,29.57
2023-05-16T11:58:44.912Z,30.08
2023-05-16T11:59:46.951Z,29.59
2023-05-16T12:00:48.937Z,29.70
2023-05-16T12:01:50.956Z,29.46
2023-05-16T12:02:52.869Z,29.77
2023-05-16T12:03:54.952Z,30.23
2023-05-16T12:04:57.223Z,30.50
2023-05-16T12:05:59.180Z,30.41
2023-05-16T12:07:01.051Z,29.85
2023-05-16T12:08:03.049Z,30.28
2023-05-16T12:09:04.933Z,30.58
2023-05-16T12:10:06.997Z,30.58
2023-05-16T12:11:09.045Z,31.08
2023-05-16T12:12:10.918Z,31.15
2023-05-16T12:13:12.882Z,31.27
2023-05-16T12:14:14.807Z,31.20
2023-05-16T12:15:16.863Z,31.37
2023-05-16T12:16:18.826Z,30.78
2023-05-16T12:17:20.779Z,30.99
2023-05-16T12:18:22.831Z,31.21
2023-05-16T12:19:26.819Z,30.88
2023-05-16T12:20:28.464Z,30.57
2023-05-16T12:21:30.204Z,31.05
2023-05-16T12:22:32.158Z,31.29
2023-05-16T12:23:34.010Z,31.47
2023-05-16T12:24:35.864Z,31.40
2023-05-16T12:25:37.738Z,31.67
2023-05-16T12:26:39.764Z,31.81
2023-05-16T12:27:42.030Z,31.94
2023-05-16T12:28:44.799Z,31.93
2023-05-16T12:29:46.757Z,31.82
2023-05-16T12:30:48.809Z,31.97
2023-05-16T12:31:50.846Z,31.94
2023-05-16T12:32:53.028Z,31.58
2023-05-16T12:33:55.074Z,31.27
2023-05-16T12:34:57.026Z,31.37
2023-05-16T12:35:58.782Z,31.21
2023-05-16T12:37:00.933Z,31.10
2023-05-16T12:38:04.003Z,30.87
2023-05-16T12:39:05.867Z,29.94
2023-05-16T12:40:08.226Z,28.91
2023-05-16T12:41:10.080Z,28.63
2023-05-16T12:42:11.921Z,28.67
2023-05-16T12:43:13.864Z,28.10
2023-05-16T12:44:15.837Z,27.77
2023-05-16T12:45:17.768Z,27.50
2023-05-16T12:46:19.680Z,27.74
2023-05-16T12:47:21.590Z,27.05
2023-05-16T12:48:23.425Z,26.83
2023-05-16T12:49:25.186Z,27.61
2023-05-16T12:50:27.470Z,27.25
2023-05-16T12:51:29.463Z,27.69
2023-05-16T12:52:31.331Z,27.87
2023-05-16T12:53:33.180Z,28.05
2023-05-16T12:54:35.035Z,28.01
2023-05-16T12:55:36.984Z,27.47
2023-05-16T12:56:38.949Z,27.29
2023-05-16T12:57:40.781Z,27.87
2023-05-16T12:58:42.931Z,27.81
2023-05-16T12:59:44.802Z,28.39
2023-05-16T13:00:46.749Z,28.64
2023-05-16T13:01:48.673Z,28.89
2023-05-16T13:02:52.834Z,28.52
2023-05-16T13:03:54.752Z,28.18
2023-05-16T13:04:56.572Z,28.69
2023-05-16T13:05:58.354Z,28.59
2023-05-16T13:07:00.322Z,28.21
2023-05-16T13:08:02.267Z,27.64
2023-05-16T13:09:04.143Z,27.36
2023-05-16T13:10:06.359Z,27.62
2023-05-16T13:11:08.212Z,27.05
2023-05-16T13:12:10.171Z,27.02
2023-05-16T13:13:13.673Z,26.87
2023-05-16T13:14:15.609Z,26.63
2023-05-16T13:15:17.360Z,26.44
2023-05-16T13:16:19.439Z,26.50
2023-05-16T13:17:21.164Z,26.68
2023-05-16T13:18:23.016Z,26.80
2023-05-16T13:19:24.923Z,26.74